Time;durP1;ratioP1;P1;durP2;ratioP2;P2;SDS_P1;SDS_P2;PMS_P1;PMS_P2;Temp;Humidity;BMP_temperature;BMP_pressure;BME280_temperature;BME280_humidity;BME280_pressure;Samples;Min_cycle;Max_cycle;Signal;HPM_P1;HPM_P2
2022/10/26 00:01:10;;;;;;;1.90;1.70;;;9.80;99.90;;;;;;5071771;28;20842;-50
2022/10/26 00:03:37;;;;;;;3.37;1.57;;;10.20;99.90;;;;;;5071638;28;20441;-51
2022/10/26 00:06:08;;;;;;;2.70;1.67;;;10.30;99.90;;;;;;5071751;28;20528;-48
2022/10/26 00:08:36;;;;;;;1.60;1.37;;;10.60;99.90;;;;;;5071597;28;20933;-48
2022/10/26 00:11:04;;;;;;;2.60;1.50;;;10.70;99.90;;;;;;5071332;28;20882;-48
2022/10/26 00:13:31;;;;;;;7.17;1.83;;;10.70;99.90;;;;;;5071464;28;20540;-50
2022/10/26 00:15:58;;;;;;;2.20;1.03;;;10.60;99.90;;;;;;5071673;28;20472;-48
2022/10/26 00:18:26;;;;;;;4.67;1.57;;;9.90;99.90;;;;;;5071668;28;20485;-47
2022/10/26 00:20:52;;;;;;;2.03;1.40;;;9.30;99.90;;;;;;5071352;28;20464;-47
2022/10/26 00:23:19;;;;;;;2.57;1.53;;;9.30;99.90;;;;;;5071406;28;21047;-47
2022/10/26 00:25:55;;;;;;;2.60;1.23;;;9.60;99.90;;;;;;5071388;28;20443;-48
2022/10/26 00:28:23;;;;;;;2.07;1.30;;;9.70;99.90;;;;;;5071256;28;20453;-48
2022/10/26 00:30:50;;;;;;;2.33;1.03;;;10.10;99.90;;;;;;5071092;28;20471;-48
2022/10/26 00:33:17;;;;;;;1.97;0.97;;;10.20;99.90;;;;;;5071205;28;20531;-47
2022/10/26 00:35:47;;;;;;;2.60;1.17;;;10.50;99.90;;;;;;5071190;28;20476;-47
2022/10/26 00:38:14;;;;;;;2.00;1.10;;;10.50;99.90;;;;;;5071057;28;20441;-48
2022/10/26 00:40:43;;;;;;;2.10;1.50;;;10.60;99.90;;;;;;5071300;28;20496;-48
2022/10/26 00:43:28;;;;;;;2.37;1.50;;;10.10;99.90;;;;;;5070980;28;20544;-48
2022/10/26 00:45:59;;;;;;;2.20;1.47;;;9.30;99.90;;;;;;5070438;28;20440;-49
2022/10/26 00:48:28;;;;;;;1.40;1.00;;;9.20;99.90;;;;;;5071498;28;20528;-48
2022/10/26 00:50:58;;;;;;;1.87;1.00;;;9.30;99.90;;;;;;5071182;28;20473;-48
2022/10/26 00:53:25;;;;;;;1.70;1.10;;;9.70;99.90;;;;;;5070808;28;20531;-47
2022/10/26 00:55:54;;;;;;;3.73;1.67;;;10.10;99.90;;;;;;5071094;28;20981;-48
2022/10/26 00:58:22;;;;;;;1.93;1.30;;;10.30;99.90;;;;;;5070958;28;20451;-48
2022/10/26 01:00:49;;;;;;;4.37;1.70;;;10.20;99.90;;;;;;5071147;28;20547;-47
2022/10/26 01:03:18;;;;;;;1.60;1.30;;;10.20;99.90;;;;;;5071095;28;20529;-51
2022/10/26 01:05:47;;;;;;;1.70;1.30;;;10.40;99.90;;;;;;5071038;28;20445;-47
2022/10/26 01:08:16;;;;;;;1.30;1.00;;;10.40;99.90;;;;;;5071209;28;20524;-48
2022/10/26 01:10:43;;;;;;;1.50;1.13;;;10.50;99.90;;;;;;5071754;28;20555;-47
2022/10/26 01:13:11;;;;;;;2.10;1.17;;;10.60;99.90;;;;;;5071150;28;21019;-48
2022/10/26 01:15:48;;;;;;;2.30;1.43;;;10.50;99.90;;;;;;5071397;28;20527;-48
2022/10/26 01:18:23;;;;;;;2.60;1.30;;;10.70;99.90;;;;;;5071039;28;21012;-48
2022/10/26 01:21:41;;;;;;;4.50;1.50;;;10.70;99.90;;;;;;5070577;28;20467;-48
2022/10/26 01:24:37;;;;;;;2.43;1.57;;;10.10;99.90;;;;;;5028661;28;20528;-49
2022/10/26 01:27:15;;;;;;;2.10;1.30;;;10.30;99.90;;;;;;5054183;28;20547;-47
2022/10/26 01:30:01;;;;;;;1.60;1.40;;;9.60;99.90;;;;;;5070395;28;20520;-47
2022/10/26 01:32:34;;;;;;;2.30;1.50;;;9.40;99.90;;;;;;5070826;28;20445;-47
2022/10/26 01:35:07;;;;;;;2.33;1.07;;;9.50;99.90;;;;;;5070671;28;20447;-49
2022/10/26 01:37:38;;;;;;;4.17;1.50;;;9.80;99.90;;;;;;5070539;28;20478;-47
2022/10/26 01:40:11;;;;;;;5.00;1.40;;;10.20;99.90;;;;;;5070886;28;20446;-48
2022/10/26 01:42:44;;;;;;;1.60;1.30;;;10.40;99.90;;;;;;5070652;28;20440;-48
2022/10/26 01:45:14;;;;;;;1.43;1.23;;;9.90;99.90;;;;;;5070313;28;20536;-47
2022/10/26 01:47:44;;;;;;;3.20;1.13;;;10.00;99.90;;;;;;5070617;28;20956;-47
2022/10/26 01:50:11;;;;;;;1.83;1.03;;;10.30;99.90;;;;;;5070327;28;20448;-51
2022/10/26 01:52:39;;;;;;;2.03;1.13;;;10.50;99.90;;;;;;5075735;28;20441;-47
2022/10/26 01:55:27;;;;;;;3.60;1.10;;;10.50;99.90;;;;;;5073956;28;20445;-49
2022/10/26 01:58:00;;;;;;;1.77;1.10;;;10.70;99.90;;;;;;5074019;28;20480;-47
2022/10/26 02:00:27;;;;;;;2.20;1.43;;;10.70;99.90;;;;;;5074008;28;20492;-47
2022/10/26 02:03:14;;;;;;;1.50;1.30;;;10.50;99.90;;;;;;5074098;28;20441;-48
2022/10/26 02:06:03;;;;;;;2.47;1.20;;;10.20;99.90;;;;;;5074242;28;20455;-48
2022/10/26 02:08:45;;;;;;;1.20;0.97;;;10.50;99.90;;;;;;5073962;28;20449;-50
2022/10/26 02:11:23;;;;;;;2.40;1.13;;;10.40;99.90;;;;;;5073938;28;20469;-48
2022/10/26 02:13:54;;;;;;;2.07;1.17;;;9.80;99.90;;;;;;5073697;28;20536;-48
2022/10/26 02:16:28;;;;;;;4.80;1.10;;;9.90;99.90;;;;;;5073859;28;20768;-48
2022/10/26 02:19:03;;;;;;;1.87;1.33;;;10.10;99.90;;;;;;5073733;28;20448;-48
2022/10/26 02:21:36;;;;;;;1.60;0.90;;;10.40;99.90;;;;;;5073428;28;20470;-48
2022/10/26 02:24:06;;;;;;;2.47;1.27;;;10.00;99.90;;;;;;5073492;28;20468;-49
2022/10/26 02:26:34;;;;;;;1.80;1.40;;;10.00;99.90;;;;;;5073758;28;20529;-48
2022/10/26 02:29:05;;;;;;;3.20;1.67;;;10.40;99.90;;;;;;5073430;28;21008;-47
2022/10/26 02:31:33;;;;;;;3.73;1.60;;;9.90;99.90;;;;;;5073180;28;20472;-48
2022/10/26 02:34:05;;;;;;;6.03;2.10;;;9.60;99.90;;;;;;5073549;28;20536;-48
2022/10/26 02:36:36;;;;;;;3.10;1.90;;;9.50;99.90;;;;;;5073498;28;20567;-48
2022/10/26 02:39:05;;;;;;;3.50;1.33;;;9.40;99.90;;;;;;5073533;28;20531;-48
2022/10/26 02:41:33;;;;;;;2.00;1.40;;;9.60;99.90;;;;;;5073097;28;20551;-49
2022/10/26 02:44:05;;;;;;;2.47;1.17;;;9.90;99.90;;;;;;5072835;28;21046;-48
2022/10/26 02:46:33;;;;;;;2.27;1.50;;;10.30;99.90;;;;;;5073332;28;20451;-48
2022/10/26 02:49:01;;;;;;;2.23;1.30;;;10.40;99.90;;;;;;5073234;28;20451;-48
2022/10/26 02:51:34;;;;;;;3.40;1.70;;;10.30;99.90;;;;;;5072869;28;20869;-48
2022/10/26 02:54:10;;;;;;;2.43;1.40;;;9.90;99.90;;;;;;5072832;28;20495;-50
2022/10/26 02:56:44;;;;;;;2.37;1.33;;;9.60;99.90;;;;;;5073227;28;20552;-47
2022/10/26 02:59:12;;;;;;;2.53;1.27;;;9.60;99.90;;;;;;5073136;28;20530;-48
2022/10/26 03:01:40;;;;;;;3.37;1.40;;;9.60;99.90;;;;;;5072701;28;20503;-47
2022/10/26 03:04:08;;;;;;;1.40;0.80;;;9.70;99.90;;;;;;5072702;28;20441;-48
2022/10/26 03:06:35;;;;;;;1.87;1.10;;;9.90;99.90;;;;;;5072831;28;20516;-49
2022/10/26 03:09:02;;;;;;;2.70;1.43;;;10.10;99.90;;;;;;5072572;28;20802;-50
2022/10/26 03:11:29;;;;;;;4.97;1.60;;;10.20;99.90;;;;;;5073030;28;20549;-48
2022/10/26 03:13:56;;;;;;;3.17;1.63;;;10.40;99.90;;;;;;5072457;28;20539;-48
2022/10/26 03:16:22;;;;;;;3.50;1.60;;;10.50;99.90;;;;;;5072559;28;20531;-50
2022/10/26 03:18:49;;;;;;;4.33;1.80;;;10.50;99.90;;;;;;5072782;28;20444;-48
2022/10/26 03:21:17;;;;;;;3.00;1.70;;;10.60;99.90;;;;;;5072041;28;20460;-47
2022/10/26 03:23:46;;;;;;;3.03;1.70;;;10.60;99.90;;;;;;5072139;28;21028;-48
2022/10/26 03:26:13;;;;;;;1.30;1.00;;;10.60;99.90;;;;;;5072195;28;20945;-51
2022/10/26 03:28:40;;;;;;;2.13;1.53;;;10.60;99.90;;;;;;5072399;28;20818;-47
2022/10/26 03:31:07;;;;;;;1.40;0.90;;;10.60;99.90;;;;;;5071954;28;20564;-47
2022/10/26 03:33:34;;;;;;;2.30;1.47;;;10.60;99.90;;;;;;5071755;28;21033;-48
2022/10/26 03:36:01;;;;;;;8.03;1.87;;;10.60;99.90;;;;;;5072277;28;20443;-47
2022/10/26 03:38:29;;;;;;;2.83;1.70;;;10.50;99.90;;;;;;5072319;28;20571;-51
2022/10/26 03:40:56;;;;;;;2.57;1.57;;;10.60;99.90;;;;;;5071250;28;20544;-50
2022/10/26 03:43:23;;;;;;;5.97;1.90;;;10.70;99.90;;;;;;5071994;28;20447;-48
2022/10/26 03:45:50;;;;;;;2.30;1.40;;;10.30;99.90;;;;;;5071896;28;21127;-48
2022/10/26 03:48:17;;;;;;;2.30;1.50;;;10.00;99.90;;;;;;5072132;28;20476;-49
2022/10/26 03:50:43;;;;;;;1.83;1.50;;;10.00;99.90;;;;;;5071853;28;20473;-48
2022/10/26 03:53:11;;;;;;;2.23;1.60;;;10.30;99.90;;;;;;5071486;28;20445;-48
2022/10/26 03:55:39;;;;;;;2.50;1.50;;;10.50;99.90;;;;;;5071962;28;20938;-48
2022/10/26 03:58:05;;;;;;;3.83;1.40;;;10.60;99.90;;;;;;5071759;28;20478;-48
2022/10/26 04:00:32;;;;;;;2.73;1.10;;;10.70;99.90;;;;;;5071645;28;20465;-49
2022/10/26 04:03:00;;;;;;;1.67;0.83;;;10.10;99.90;;;;;;5071705;28;20534;-48
2022/10/26 04:05:28;;;;;;;2.20;1.33;;;9.90;99.90;;;;;;5072011;28;20523;-48
2022/10/26 04:07:57;;;;;;;2.27;1.30;;;9.80;99.90;;;;;;5071733;28;20439;-49
2022/10/26 04:10:25;;;;;;;2.03;0.80;;;9.70;99.90;;;;;;5071668;28;20547;-51
2022/10/26 04:12:54;;;;;;;1.50;1.30;;;9.70;99.90;;;;;;5071150;28;20528;-45
2022/10/26 04:15:21;;;;;;;2.50;1.20;;;9.80;99.90;;;;;;5071547;28;20455;-48
2022/10/26 04:17:48;;;;;;;1.47;1.20;;;10.10;99.90;;;;;;5071336;28;20483;-47
2022/10/26 04:20:15;;;;;;;1.23;0.80;;;10.40;99.90;;;;;;5070963;28;20452;-48
2022/10/26 04:22:42;;;;;;;1.50;0.90;;;10.50;99.90;;;;;;5071008;28;20533;-49
2022/10/26 04:25:11;;;;;;;1.87;1.10;;;10.50;99.90;;;;;;5071256;28;20441;-48
2022/10/26 04:27:38;;;;;;;5.53;1.87;;;10.60;99.90;;;;;;5071496;28;20445;-48
2022/10/26 04:30:08;;;;;;;3.90;3.00;;;10.50;99.90;;;;;;5070893;28;20450;-47
2022/10/26 04:32:35;;;;;;;6.27;3.03;;;9.80;99.90;;;;;;5071361;28;20906;-49
2022/10/26 04:35:02;;;;;;;2.57;2.30;;;9.70;99.90;;;;;;5071171;28;20536;-48
2022/10/26 04:37:29;;;;;;;3.10;2.00;;;10.00;99.90;;;;;;5071307;28;20478;-48
2022/10/26 04:39:56;;;;;;;2.47;1.40;;;10.10;99.90;;;;;;5071364;28;21251;-48
2022/10/26 04:42:23;;;;;;;3.50;1.30;;;10.10;99.90;;;;;;5071609;28;20467;-48
2022/10/26 04:44:50;;;;;;;1.87;1.30;;;10.20;99.90;;;;;;5071159;28;20874;-48
2022/10/26 04:47:18;;;;;;;2.23;2.00;;;10.40;99.90;;;;;;5071368;28;20441;-47
2022/10/26 04:49:45;;;;;;;20.00;18.30;;;10.60;99.90;;;;;;5071424;28;20976;-49
2022/10/26 04:52:11;;;;;;;8.93;7.90;;;10.60;99.90;;;;;;5070826;28;20535;-48
2022/10/26 04:54:38;;;;;;;3.13;2.07;;;10.60;99.90;;;;;;5070875;28;20444;-48
2022/10/26 04:57:05;;;;;;;1.57;1.20;;;10.70;99.90;;;;;;5071483;28;20505;-50
2022/10/26 04:59:32;;;;;;;3.80;2.50;;;10.60;99.90;;;;;;5070932;28;20968;-48
2022/10/26 05:01:59;;;;;;;8.27;7.30;;;10.50;99.90;;;;;;5071043;28;20500;-47
2022/10/26 05:04:27;;;;;;;2.90;2.60;;;10.60;99.90;;;;;;5070723;28;20528;-48
2022/10/26 05:06:54;;;;;;;4.33;1.20;;;10.70;99.90;;;;;;5071023;28;20535;-48
2022/10/26 05:09:21;;;;;;;2.17;1.53;;;10.10;99.90;;;;;;5071150;28;20532;-48
2022/10/26 05:11:47;;;;;;;5.83;2.70;;;10.00;99.90;;;;;;5071135;28;20488;-51
2022/10/26 05:14:14;;;;;;;3.60;3.30;;;10.20;99.90;;;;;;5070992;28;20844;-48
2022/10/26 05:16:43;;;;;;;3.37;3.03;;;10.40;99.90;;;;;;5070991;28;21009;-48
2022/10/26 05:19:10;;;;;;;2.40;2.20;;;10.60;99.90;;;;;;5070758;28;20556;-48
2022/10/26 05:21:38;;;;;;;3.43;2.13;;;10.70;99.90;;;;;;5070531;28;20460;-48
2022/10/26 05:24:06;;;;;;;3.17;2.40;;;9.70;99.90;;;;;;5070361;28;20805;-48
2022/10/26 05:26:33;;;;;;;2.73;2.10;;;9.30;99.90;;;;;;5072961;28;20535;-49
2022/10/26 05:29:00;;;;;;;3.57;2.50;;;9.20;99.90;;;;;;5074704;28;20485;-48
2022/10/26 05:31:26;;;;;;;5.87;3.10;;;9.10;99.90;;;;;;5074867;28;20820;-47
2022/10/26 05:33:53;;;;;;;2.53;1.93;;;9.20;99.90;;;;;;5074312;28;20444;-48
2022/10/26 05:36:20;;;;;;;3.53;2.50;;;9.40;99.90;;;;;;5074624;28;20440;-48
2022/10/26 05:38:49;;;;;;;3.30;2.77;;;9.80;99.90;;;;;;5074236;28;20566;-51
2022/10/26 05:41:15;;;;;;;4.70;3.10;;;9.90;99.90;;;;;;5074086;28;20555;-50
2022/10/26 05:43:42;;;;;;;3.57;3.17;;;9.30;99.90;;;;;;5073945;28;20444;-48
2022/10/26 05:46:09;;;;;;;4.20;2.80;;;9.10;99.90;;;;;;5074181;28;20527;-48
2022/10/26 05:48:36;;;;;;;5.03;2.80;;;9.20;99.90;;;;;;5074506;28;20443;-51
2022/10/26 05:51:03;;;;;;;6.37;3.00;;;9.30;99.90;;;;;;5074159;28;20555;-47
2022/10/26 05:53:30;;;;;;;6.47;4.40;;;9.50;99.90;;;;;;5073920;28;20446;-48
2022/10/26 05:55:58;;;;;;;5.33;3.83;;;9.30;99.90;;;;;;5074272;28;20441;-50
2022/10/26 05:58:26;;;;;;;7.03;4.67;;;9.30;99.90;;;;;;5073852;28;20559;-48
2022/10/26 06:01:10;;;;;;;4.53;4.00;;;9.40;99.90;;;;;;5074358;28;20471;-50
2022/10/26 06:03:48;;;;;;;6.90;5.70;;;9.50;99.90;;;;;;5073988;28;20455;-48
2022/10/26 06:06:15;;;;;;;6.73;4.87;;;9.50;99.90;;;;;;5073989;28;20551;-47
2022/10/26 06:08:42;;;;;;;8.63;4.53;;;9.40;99.90;;;;;;5074015;28;20447;-49
2022/10/26 06:11:12;;;;;;;5.50;3.00;;;9.40;99.90;;;;;;5074320;28;20461;-51
2022/10/26 06:13:39;;;;;;;11.13;4.30;;;9.40;99.90;;;;;;5073457;28;20445;-48
2022/10/26 06:16:26;;;;;;;5.67;3.07;;;9.60;99.90;;;;;;5073857;28;20444;-49
2022/10/26 06:19:04;;;;;;;3.43;2.33;;;9.60;99.90;;;;;;5073627;28;20472;-48
2022/10/26 06:21:45;;;;;;;12.07;6.73;;;9.70;99.90;;;;;;5073441;28;20496;-48
2022/10/26 06:24:22;;;;;;;4.40;3.00;;;9.70;99.90;;;;;;5073347;28;20789;-48
2022/10/26 06:26:59;;;;;;;6.57;4.80;;;9.90;99.90;;;;;;5073684;28;20531;-48
2022/10/26 06:29:37;;;;;;;15.40;9.50;;;10.10;99.90;;;;;;5073459;28;20436;-48
2022/10/26 06:32:04;;;;;;;23.53;13.67;;;10.40;99.90;;;;;;5073583;28;20465;-48
2022/10/26 06:34:38;;;;;;;12.40;7.40;;;10.50;99.90;;;;;;5073295;28;20520;-48
2022/10/26 06:37:05;;;;;;;11.33;6.90;;;10.50;99.90;;;;;;5073052;28;20439;-48
2022/10/26 06:39:37;;;;;;;7.40;5.10;;;10.50;99.90;;;;;;5073424;28;20568;-48
2022/10/26 06:42:06;;;;;;;8.83;5.10;;;10.70;99.90;;;;;;5073619;28;20544;-48
2022/10/26 06:44:33;;;;;;;6.63;4.20;;;10.70;99.90;;;;;;5073441;28;20536;-48
2022/10/26 06:47:06;;;;;;;4.33;3.90;;;10.80;99.90;;;;;;5073381;28;20451;-48
2022/10/26 06:49:36;;;;;;;5.40;3.33;;;10.80;99.90;;;;;;5073203;28;20929;-47
2022/10/26 06:52:11;;;;;;;4.03;3.63;;;10.90;99.90;;;;;;5073410;28;20483;-48
2022/10/26 06:54:48;;;;;;;4.00;3.53;;;10.90;99.90;;;;;;5072879;28;21001;-48
2022/10/26 06:57:18;;;;;;;5.20;4.60;;;10.90;99.90;;;;;;5073021;28;20445;-48
2022/10/26 06:59:48;;;;;;;9.33;4.67;;;10.80;99.90;;;;;;5073182;28;20447;-49
2022/10/26 07:02:15;;;;;;;5.00;2.97;;;10.80;99.90;;;;;;5073118;28;20898;-48
2022/10/26 07:04:42;;;;;;;4.50;2.77;;;10.50;99.90;;;;;;5072569;28;20449;-47
2022/10/26 07:07:11;;;;;;;4.30;3.13;;;10.40;99.90;;;;;;5073222;28;20541;-50
2022/10/26 07:09:38;;;;;;;5.57;3.57;;;10.50;99.90;;;;;;5072918;28;20522;-47
2022/10/26 07:12:05;;;;;;;4.90;3.33;;;10.70;99.90;;;;;;5072690;28;20551;-48
2022/10/26 07:14:33;;;;;;;10.00;4.63;;;10.80;99.90;;;;;;5072319;28;20939;-48
2022/10/26 07:17:00;;;;;;;4.53;3.20;;;10.80;99.90;;;;;;5072482;28;20889;-48
2022/10/26 07:19:27;;;;;;;9.90;5.63;;;10.70;99.90;;;;;;5072585;28;20504;-48
2022/10/26 07:21:55;;;;;;;6.87;6.17;;;10.80;99.90;;;;;;5072197;28;20551;-50
2022/10/26 07:24:22;;;;;;;11.37;10.37;;;10.90;99.90;;;;;;5072271;28;20997;-51
2022/10/26 07:26:49;;;;;;;10.90;9.30;;;10.60;99.90;;;;;;5072457;28;20444;-48
2022/10/26 07:29:16;;;;;;;6.93;6.33;;;10.50;99.90;;;;;;5072248;28;20532;-48
2022/10/26 07:31:45;;;;;;;5.90;5.40;;;10.40;99.90;;;;;;5072556;28;20476;-47
2022/10/26 07:34:11;;;;;;;6.00;4.37;;;10.40;99.90;;;;;;5072204;28;20467;-48
2022/10/26 07:36:38;;;;;;;4.43;3.57;;;10.50;99.90;;;;;;5072466;28;20537;-48
2022/10/26 07:39:05;;;;;;;8.73;3.90;;;10.60;99.90;;;;;;5071977;28;20476;-49
2022/10/26 07:41:33;;;;;;;7.10;4.03;;;10.80;99.90;;;;;;5072192;28;20533;-48
2022/10/26 07:44:00;;;;;;;5.10;4.60;;;10.90;99.90;;;;;;5071745;28;21004;-48
2022/10/26 07:46:27;;;;;;;8.13;5.43;;;11.00;99.90;;;;;;5072241;28;20868;-49
2022/10/26 07:48:56;;;;;;;5.03;4.53;;;10.70;99.90;;;;;;5071331;28;20447;-48
2022/10/26 07:51:23;;;;;;;5.90;4.47;;;10.60;99.90;;;;;;5073115;28;20564;-48
2022/10/26 07:53:49;;;;;;;6.57;5.70;;;10.60;99.90;;;;;;5071932;28;20447;-48
2022/10/26 07:56:16;;;;;;;8.20;4.50;;;10.80;99.90;;;;;;5071703;28;20535;-49
2022/10/26 07:58:43;;;;;;;5.13;4.73;;;11.00;99.90;;;;;;5071557;28;20567;-48
2022/10/26 08:01:12;;;;;;;6.50;5.63;;;11.00;99.90;;;;;;5072005;28;20722;-48
2022/10/26 08:03:39;;;;;;;5.30;4.80;;;11.10;99.90;;;;;;5071562;28;20449;-49
2022/10/26 08:06:09;;;;;;;4.67;3.87;;;10.80;99.90;;;;;;5071732;28;20527;-48
2022/10/26 08:08:36;;;;;;;4.00;3.60;;;11.00;99.90;;;;;;5071676;28;20536;-48
2022/10/26 08:11:05;;;;;;;9.37;3.30;;;10.70;99.90;;;;;;5071549;28;20991;-48
2022/10/26 08:13:34;;;;;;;3.50;2.00;;;10.70;99.90;;;;;;5071708;28;20533;-48
2022/10/26 08:16:02;;;;;;;2.70;1.50;;;11.00;99.90;;;;;;5071813;28;20445;-47
2022/10/26 08:18:29;;;;;;;1.90;1.60;;;11.40;99.90;;;;;;5071372;28;20978;-48
2022/10/26 08:21:02;;;;;;;4.20;2.77;;;11.50;99.90;;;;;;5071163;28;20460;-49
2022/10/26 08:23:30;;;;;;;5.73;3.63;;;11.60;99.90;;;;;;5071263;28;20445;-48
2022/10/26 08:25:59;;;;;;;3.40;2.80;;;11.50;99.90;;;;;;5071401;28;20527;-48
2022/10/26 08:28:26;;;;;;;4.57;4.00;;;11.50;99.90;;;;;;5071378;28;20432;-48
2022/10/26 08:30:53;;;;;;;4.70;4.20;;;11.50;99.90;;;;;;5071134;28;20471;-48
2022/10/26 08:33:20;;;;;;;6.17;4.30;;;11.10;99.90;;;;;;5070898;28;20946;-48
2022/10/26 08:35:46;;;;;;;6.90;4.87;;;11.10;99.90;;;;;;5071538;28;20552;-49
2022/10/26 08:38:13;;;;;;;4.23;3.60;;;11.30;99.90;;;;;;5071456;28;20477;-48
2022/10/26 08:40:43;;;;;;;5.93;5.40;;;11.20;99.90;;;;;;5071157;28;20841;-48
2022/10/26 08:43:16;;;;;;;4.73;4.33;;;11.20;99.90;;;;;;5071028;28;21016;-48
2022/10/26 08:45:49;;;;;;;4.83;4.43;;;11.10;99.90;;;;;;5071282;28;20542;-51
2022/10/26 08:48:19;;;;;;;4.77;4.27;;;11.00;99.90;;;;;;5071467;28;20445;-48
2022/10/26 08:50:50;;;;;;;4.40;4.00;;;11.00;99.90;;;;;;5070970;28;20473;-48
2022/10/26 08:53:22;;;;;;;4.90;3.80;;;11.20;99.90;;;;;;5070878;28;20535;-48
2022/10/26 08:55:55;;;;;;;4.60;3.30;;;11.20;99.90;;;;;;5071167;28;20441;-48
2022/10/26 08:58:27;;;;;;;2.37;2.17;;;11.30;99.90;;;;;;5070917;28;20480;-50
2022/10/26 09:00:54;;;;;;;2.97;2.47;;;11.50;99.90;;;;;;5073773;28;20995;-48
2022/10/26 09:03:21;;;;;;;3.90;2.00;;;11.70;99.90;;;;;;5075019;28;20476;-48
2022/10/26 09:06:07;;;;;;;2.23;1.80;;;11.90;99.90;;;;;;5075305;28;20459;-48
2022/10/26 09:08:43;;;;;;;2.57;2.23;;;12.10;99.90;;;;;;5074984;28;20888;-48
2022/10/26 09:11:20;;;;;;;3.83;2.57;;;12.10;99.90;;;;;;5074894;28;20467;-48
2022/10/26 09:13:59;;;;;;;4.10;2.40;;;12.00;99.90;;;;;;5074985;28;20522;-48
2022/10/26 09:16:31;;;;;;;5.20;3.70;;;12.10;99.90;;;;;;5074851;28;20528;-48
2022/10/26 09:19:25;;;;;;;8.50;7.47;;;12.00;99.90;;;;;;5074720;28;20587;-48
2022/10/26 09:21:58;;;;;;;8.17;5.33;;;11.90;99.90;;;;;;5074285;28;20548;-49
2022/10/26 09:24:30;;;;;;;5.67;5.07;;;11.70;99.90;;;;;;5074909;28;20448;-47
2022/10/26 09:27:06;;;;;;;5.80;5.20;;;11.60;99.90;;;;;;5074838;28;20532;-48
2022/10/26 09:29:39;;;;;;;7.87;7.00;;;11.70;99.90;;;;;;5074372;28;20523;-47
2022/10/26 09:32:13;;;;;;;7.37;6.67;;;11.80;99.90;;;;;;5074431;28;20466;-48
2022/10/26 09:34:44;;;;;;;5.90;5.13;;;11.80;99.90;;;;;;5074612;28;20815;-49
2022/10/26 09:37:16;;;;;;;4.97;4.10;;;11.90;99.90;;;;;;5074333;28;20967;-47
2022/10/26 09:39:51;;;;;;;6.13;4.80;;;11.90;99.90;;;;;;5074329;28;20486;-48
2022/10/26 09:42:24;;;;;;;4.90;4.00;;;12.00;99.90;;;;;;5074321;28;20502;-49
2022/10/26 09:44:54;;;;;;;4.67;4.00;;;12.00;99.90;;;;;;5074121;28;20441;-50
2022/10/26 09:47:33;;;;;;;4.40;3.60;;;12.00;99.90;;;;;;5074396;28;20519;-48
2022/10/26 09:50:06;;;;;;;6.30;2.97;;;12.00;99.90;;;;;;5074166;28;20443;-48
2022/10/26 09:52:33;;;;;;;5.60;3.57;;;12.10;99.90;;;;;;5074282;28;20445;-49
2022/10/26 09:55:00;;;;;;;4.53;3.43;;;12.20;99.90;;;;;;5073722;28;20442;-48
2022/10/26 09:57:29;;;;;;;5.63;5.00;;;12.30;99.90;;;;;;5074272;28;20528;-48
2022/10/26 09:59:57;;;;;;;4.10;3.60;;;12.40;99.90;;;;;;5074494;28;20490;-49
2022/10/26 10:02:35;;;;;;;3.97;3.57;;;12.40;99.90;;;;;;5073969;28;20465;-49
2022/10/26 10:05:02;;;;;;;5.83;3.23;;;12.50;99.90;;;;;;5073845;28;20952;-48
2022/10/26 10:07:28;;;;;;;3.07;2.57;;;12.50;99.90;;;;;;5074057;28;20442;-48
2022/10/26 10:10:17;;;;;;;6.20;4.27;;;12.80;99.90;;;;;;5074210;28;20444;-48
2022/10/26 10:12:49;;;;;;;6.23;3.97;;;13.20;99.90;;;;;;5065849;28;20442;-48
2022/10/26 10:15:21;;;;;;;6.37;4.20;;;13.40;99.90;;;;;;5073647;28;20447;-49
2022/10/26 10:17:54;;;;;;;5.00;3.77;;;13.40;99.90;;;;;;5074205;28;20430;-48
2022/10/26 10:20:24;;;;;;;3.97;3.57;;;13.30;99.90;;;;;;5073675;28;20537;-48
2022/10/26 10:22:59;;;;;;;4.67;3.20;;;13.30;99.90;;;;;;5073819;28;20867;-49
2022/10/26 10:25:36;;;;;;;5.30;2.93;;;13.20;99.90;;;;;;5074099;28;20526;-49
2022/10/26 10:28:20;;;;;;;4.50;3.13;;;13.20;99.90;;;;;;5073667;28;20445;-51
2022/10/26 10:30:54;;;;;;;3.70;3.30;;;13.30;99.90;;;;;;5073435;28;20523;-49
2022/10/26 10:33:21;;;;;;;4.90;4.20;;;13.20;99.90;;;;;;5073443;28;20826;-49
2022/10/26 10:35:51;;;;;;;4.00;3.50;;;13.30;99.90;;;;;;5073594;28;20758;-49
2022/10/26 10:38:21;;;;;;;5.43;3.63;;;13.20;99.90;;;;;;5073678;28;20443;-50
2022/10/26 10:40:52;;;;;;;5.07;3.00;;;13.30;99.90;;;;;;5073383;28;20567;-49
2022/10/26 10:43:21;;;;;;;4.03;3.60;;;13.50;99.90;;;;;;5073150;28;20446;-49
2022/10/26 10:45:50;;;;;;;5.30;3.50;;;13.80;99.90;;;;;;5073333;28;20526;-49
2022/10/26 10:48:20;;;;;;;4.63;2.70;;;13.70;99.90;;;;;;5073283;28;20444;-49
2022/10/26 10:50:56;;;;;;;6.60;3.47;;;13.80;99.90;;;;;;5073205;28;20470;-52
2022/10/26 10:53:29;;;;;;;6.17;3.23;;;13.90;99.90;;;;;;5072802;28;20445;-52
2022/10/26 10:56:05;;;;;;;2.67;2.43;;;14.00;99.90;;;;;;5073036;28;20436;-48
2022/10/26 10:58:42;;;;;;;4.03;3.00;;;14.00;99.90;;;;;;5072818;28;20808;-49
2022/10/26 11:01:14;;;;;;;3.30;3.00;;;13.90;99.90;;;;;;5073114;28;20547;-48
2022/10/26 11:03:52;;;;;;;5.27;3.70;;;13.80;99.90;;;;;;5072634;28;20538;-49
2022/10/26 11:06:22;;;;;;;3.93;3.53;;;13.70;99.90;;;;;;5072904;28;20448;-48
2022/10/26 11:08:51;;;;;;;4.53;3.80;;;13.50;99.90;;;;;;5072694;28;20453;-50
2022/10/26 11:11:23;;;;;;;4.50;3.50;;;13.40;99.90;;;;;;5072690;28;20471;-51
2022/10/26 11:13:55;;;;;;;5.63;3.90;;;13.40;99.90;;;;;;5072764;28;20532;-49
2022/10/26 11:16:26;;;;;;;5.00;4.10;;;13.40;99.90;;;;;;5072631;28;20816;-47
2022/10/26 11:18:57;;;;;;;4.53;3.53;;;13.40;99.90;;;;;;5072462;28;20535;-50
2022/10/26 11:21:28;;;;;;;4.17;3.77;;;13.50;99.90;;;;;;5072274;28;20546;-49
2022/10/26 11:24:10;;;;;;;4.60;3.33;;;13.50;99.90;;;;;;5072059;28;20454;-49
2022/10/26 11:26:42;;;;;;;3.33;3.03;;;13.50;99.90;;;;;;5072566;28;20508;-48
2022/10/26 11:29:21;;;;;;;4.77;3.60;;;13.50;99.90;;;;;;5071910;28;20533;-50
2022/10/26 11:31:54;;;;;;;3.73;3.40;;;13.60;99.90;;;;;;5072551;28;20461;-49
2022/10/26 11:34:29;;;;;;;6.83;3.87;;;13.70;99.90;;;;;;5072178;28;20447;-49
2022/10/26 11:37:02;;;;;;;5.50;3.27;;;13.60;99.90;;;;;;5072459;28;20464;-49
2022/10/26 11:39:36;;;;;;;4.40;2.97;;;13.60;99.90;;;;;;5072160;28;20475;-49
2022/10/26 11:42:09;;;;;;;4.13;3.47;;;13.60;99.90;;;;;;5072107;28;20466;-50
2022/10/26 11:44:42;;;;;;;7.37;4.70;;;13.80;99.90;;;;;;5071908;28;20534;-51
2022/10/26 11:47:14;;;;;;;3.37;3.00;;;13.80;99.90;;;;;;5072175;28;20524;-49
2022/10/26 11:49:46;;;;;;;3.80;2.97;;;14.00;99.90;;;;;;5072054;28;20435;-49
2022/10/26 11:52:16;;;;;;;10.93;3.03;;;13.80;99.90;;;;;;5071677;28;20476;-49
2022/10/26 11:54:46;;;;;;;3.50;2.93;;;13.80;99.90;;;;;;5071772;28;20451;-49
2022/10/26 11:57:15;;;;;;;4.83;2.53;;;13.80;99.90;;;;;;5072114;28;20444;-50
2022/10/26 11:59:47;;;;;;;5.47;3.20;;;13.80;99.90;;;;;;5071849;28;20786;-48
2022/10/26 12:02:17;;;;;;;3.93;3.50;;;13.80;99.90;;;;;;5071848;28;20544;-50
2022/10/26 12:04:48;;;;;;;4.60;3.80;;;13.80;99.90;;;;;;5071332;28;20527;-50
2022/10/26 12:07:21;;;;;;;4.57;3.20;;;13.80;99.90;;;;;;5071618;28;20455;-48
2022/10/26 12:09:48;;;;;;;3.20;2.90;;;13.90;99.90;;;;;;5071754;28;20526;-49
2022/10/26 12:12:23;;;;;;;2.87;2.57;;;14.00;99.90;;;;;;5071952;28;20885;-49
2022/10/26 12:14:57;;;;;;;3.50;2.90;;;13.90;99.90;;;;;;5072067;28;20475;-49
2022/10/26 12:17:30;;;;;;;4.80;3.07;;;13.90;99.90;;;;;;5072151;28;20444;-50
2022/10/26 12:20:10;;;;;;;4.53;2.67;;;13.90;99.90;;;;;;5072113;28;20474;-49
2022/10/26 12:22:39;;;;;;;3.13;2.83;;;14.00;99.90;;;;;;5071719;28;20820;-49
2022/10/26 12:25:18;;;;;;;4.17;3.27;;;14.00;99.90;;;;;;5071221;28;20450;-49
2022/10/26 12:27:54;;;;;;;3.73;3.37;;;14.20;99.90;;;;;;5071573;28;20443;-49
2022/10/26 12:30:35;;;;;;;5.63;3.10;;;14.10;99.90;;;;;;5070914;28;20435;-49
2022/10/26 12:33:23;;;;;;;4.30;2.57;;;14.10;99.90;;;;;;5070846;28;20440;-49
2022/10/26 12:35:50;;;;;;;3.93;3.30;;;14.10;99.90;;;;;;5070811;28;20445;-49
2022/10/26 12:39:05;;;;;;;4.40;2.53;;;14.20;99.90;;;;;;5071364;28;20476;-51
2022/10/26 12:41:32;;;;;;;4.37;2.83;;;14.30;99.90;;;;;;5070895;28;20490;-50
2022/10/26 12:44:04;;;;;;;3.33;2.47;;;14.30;99.90;;;;;;5070582;28;20984;-50
2022/10/26 12:46:44;;;;;;;3.20;2.60;;;14.20;99.90;;;;;;5071215;28;21004;-48
2022/10/26 12:49:49;;;;;;;3.40;2.97;;;14.30;99.90;;;;;;5071371;28;20489;-49
2022/10/26 12:52:21;;;;;;;4.03;2.83;;;14.40;99.90;;;;;;4989170;28;20812;-49
2022/10/26 12:55:08;;;;;;;4.53;2.77;;;14.40;99.90;;;;;;5070808;28;20900;-51
2022/10/26 12:57:47;;;;;;;3.30;2.77;;;14.30;99.90;;;;;;5071134;28;20436;-49
2022/10/26 13:00:16;;;;;;;3.00;2.70;;;14.30;99.90;;;;;;5070957;28;20992;-49
2022/10/26 13:02:58;;;;;;;3.60;2.90;;;14.40;99.90;;;;;;5070868;28;20447;-51
2022/10/26 13:05:58;;;;;;;3.53;2.43;;;14.20;99.90;;;;;;5071355;28;20441;-49
2022/10/26 13:08:25;;;;;;;4.90;2.40;;;14.20;99.90;;;;;;5070792;28;20528;-47